createdAt,value
2019-03-15T00:00:59.690Z,18.91
2019-03-15T00:01:59.649Z,18.9
2019-03-15T00:02:59.664Z,18.9
2019-03-15T00:03:59.637Z,18.9
2019-03-15T00:04:59.500Z,18.9
2019-03-15T00:05:59.607Z,18.9
2019-03-15T00:06:59.945Z,18.89
2019-03-15T00:07:59.482Z,18.89
2019-03-15T00:08:59.713Z,18.89
2019-03-15T00:09:59.700Z,18.87
2019-03-15T00:11:00.166Z,18.87
2019-03-15T00:12:00.171Z,18.87
2019-03-15T00:12:59.551Z,18.86
2019-03-15T00:13:59.640Z,18.85
2019-03-15T00:14:59.716Z,18.85
2019-03-15T00:15:59.454Z,18.85
2019-03-15T00:17:00.086Z,18.84
2019-03-15T00:18:00.130Z,18.84
2019-03-15T00:18:59.466Z,18.84
2019-03-15T00:19:59.649Z,18.84
2019-03-15T00:20:59.766Z,18.83
2019-03-15T00:21:59.477Z,18.83
2019-03-15T00:22:59.759Z,18.82
2019-03-15T00:23:59.797Z,18.82
2019-03-15T00:24:59.601Z,18.8
2019-03-15T00:25:59.662Z,18.8
2019-03-15T00:26:59.470Z,18.8
2019-03-15T00:27:59.552Z,18.8
2019-03-15T00:28:59.686Z,18.8
2019-03-15T00:29:59.534Z,18.8
2019-03-15T00:30:59.644Z,18.79
2019-03-15T00:31:59.670Z,18.78
2019-03-15T00:32:59.545Z,18.78
2019-03-15T00:33:59.686Z,18.78
2019-03-15T00:34:59.705Z,18.78
2019-03-15T00:35:59.564Z,18.78
2019-03-15T00:36:59.681Z,18.77
2019-03-15T00:37:59.423Z,18.77
2019-03-15T00:38:59.521Z,18.78
2019-03-15T00:39:59.630Z,18.77
2019-03-15T00:40:59.494Z,18.76
2019-03-15T00:41:59.638Z,18.76
2019-03-15T00:42:59.407Z,18.76
2019-03-15T00:43:59.505Z,18.76
2019-03-15T00:44:59.685Z,18.75
2019-03-15T00:45:59.470Z,18.75
2019-03-15T00:46:59.847Z,18.74
2019-03-15T00:47:59.732Z,18.73
2019-03-15T00:48:59.449Z,18.73
2019-03-15T00:49:59.560Z,18.73
2019-03-15T00:50:59.661Z,18.72
2019-03-15T00:51:59.575Z,18.72
2019-03-15T00:52:59.561Z,18.73
2019-03-15T00:53:59.850Z,18.72
2019-03-15T00:54:59.475Z,18.72
2019-03-15T00:55:59.575Z,18.72
2019-03-15T00:56:59.451Z,18.71
2019-03-15T00:57:59.547Z,18.71
2019-03-15T00:58:59.590Z,18.7
2019-03-15T00:59:59.691Z,18.7
2019-03-15T01:00:59.574Z,18.69
2019-03-15T01:01:59.646Z,18.69
2019-03-15T01:02:59.568Z,18.7
2019-03-15T01:03:59.587Z,18.69
2019-03-15T01:04:59.624Z,18.68
2019-03-15T01:05:59.443Z,18.69
2019-03-15T01:06:59.504Z,18.68
2019-03-15T01:07:59.661Z,18.68
2019-03-15T01:08:59.444Z,18.67
2019-03-15T01:09:59.653Z,18.67
2019-03-15T01:10:59.453Z,18.67
2019-03-15T01:11:59.603Z,18.66
2019-03-15T01:12:59.645Z,18.66
2019-03-15T01:13:59.702Z,18.66
2019-03-15T01:14:59.490Z,18.66
2019-03-15T01:16:00.221Z,18.65
2019-03-15T01:17:01.117Z,18.65
2019-03-15T01:17:59.523Z,18.65
2019-03-15T01:18:59.696Z,18.65
2019-03-15T01:19:59.509Z,18.64
2019-03-15T01:20:59.490Z,18.65
2019-03-15T01:21:59.862Z,18.64
2019-03-15T01:22:59.460Z,18.64
2019-03-15T01:23:59.761Z,18.64
2019-03-15T01:24:59.642Z,18.62
2019-03-15T01:25:59.730Z,18.62
2019-03-15T01:26:59.557Z,18.62
2019-03-15T01:27:59.455Z,18.62
2019-03-15T01:28:59.555Z,18.62
2019-03-15T01:29:59.607Z,18.62
2019-03-15T01:30:59.517Z,18.62
2019-03-15T01:31:59.566Z,18.62
2019-03-15T01:33:00.364Z,18.62
2019-03-15T01:33:59.890Z,18.61
2019-03-15T01:34:59.590Z,18.61
2019-03-15T01:36:00.231Z,18.6
2019-03-15T01:36:59.574Z,18.6
2019-03-15T01:38:00.062Z,18.6
2019-03-15T01:38:59.484Z,18.59
2019-03-15T01:40:00.766Z,18.59
2019-03-15T01:40:59.718Z,18.59
2019-03-15T01:41:59.473Z,18.58
2019-03-15T01:42:59.638Z,18.58
2019-03-15T01:43:59.724Z,18.58
2019-03-15T01:44:59.562Z,18.58
2019-03-15T01:45:59.539Z,18.56
2019-03-15T01:46:59.633Z,18.56
2019-03-15T01:47:59.474Z,18.56
2019-03-15T01:48:59.633Z,18.56
2019-03-15T01:49:59.660Z,18.56
2019-03-15T01:50:59.552Z,18.56
2019-03-15T01:51:59.524Z,18.56
2019-03-15T01:52:59.367Z,18.56
2019-03-15T01:53:59.555Z,18.55
2019-03-15T01:54:59.542Z,18.54
2019-03-15T01:55:59.426Z,18.54
2019-03-15T01:56:59.525Z,18.54
2019-03-15T01:57:59.575Z,18.54
2019-03-15T01:58:59.622Z,18.54
2019-03-15T01:59:59.601Z,18.54
2019-03-15T02:00:59.682Z,18.54
2019-03-15T02:01:59.417Z,18.54
2019-03-15T02:03:02.903Z,18.54
2019-03-15T02:03:59.765Z,18.52
2019-03-15T02:04:59.437Z,18.53
2019-03-15T02:05:59.651Z,18.53
2019-03-15T02:06:59.520Z,18.52
2019-03-15T02:08:01.087Z,18.53
2019-03-15T02:08:59.582Z,18.52
2019-03-15T02:09:59.433Z,18.51
2019-03-15T02:10:59.555Z,18.52
2019-03-15T02:11:59.973Z,18.52
2019-03-15T02:12:59.492Z,18.51
2019-03-15T02:13:59.536Z,18.51
2019-03-15T02:14:59.421Z,18.51
2019-03-15T02:15:59.501Z,18.5
2019-03-15T02:17:00.944Z,18.49
2019-03-15T02:17:59.431Z,18.49
2019-03-15T02:18:59.529Z,18.49
2019-03-15T02:19:59.553Z,18.48
2019-03-15T02:20:59.846Z,18.48
2019-03-15T02:21:59.633Z,18.48
2019-03-15T02:22:59.722Z,18.48
2019-03-15T02:23:59.539Z,18.48
2019-03-15T02:24:59.645Z,18.48
2019-03-15T02:25:59.524Z,18.48
2019-03-15T02:26:59.594Z,18.48
2019-03-15T02:27:59.628Z,18.47
2019-03-15T02:28:59.473Z,18.46
2019-03-15T02:29:59.508Z,18.46
2019-03-15T02:31:00.378Z,18.46
2019-03-15T02:31:59.569Z,18.47
2019-03-15T02:32:59.617Z,18.46
2019-03-15T02:34:00.611Z,18.46
2019-03-15T02:34:59.539Z,18.45
2019-03-15T02:35:59.654Z,18.44
2019-03-15T02:36:59.492Z,18.45
2019-03-15T02:38:00.597Z,18.45
2019-03-15T02:38:59.687Z,18.44
2019-03-15T02:39:59.679Z,18.44
2019-03-15T02:40:59.514Z,18.44
2019-03-15T02:41:59.695Z,18.44
2019-03-15T02:42:59.426Z,18.42
2019-03-15T02:43:59.544Z,18.43
2019-03-15T02:44:59.699Z,18.42
2019-03-15T02:45:59.554Z,18.42
2019-03-15T02:46:59.597Z,18.42
2019-03-15T02:47:59.746Z,18.41
2019-03-15T02:48:59.429Z,18.42
2019-03-15T02:50:02.310Z,18.41
2019-03-15T02:50:59.435Z,18.41
2019-03-15T02:51:59.451Z,18.41
2019-03-15T02:52:59.787Z,18.41
2019-03-15T02:54:01.353Z,18.4
2019-03-15T02:54:59.486Z,18.4
2019-03-15T02:55:59.854Z,18.4
2019-03-15T02:56:59.428Z,18.4
2019-03-15T02:57:59.542Z,18.4
2019-03-15T02:58:59.658Z,18.39
2019-03-15T02:59:59.547Z,18.4
2019-03-15T03:00:59.555Z,18.39
2019-03-15T03:02:01.041Z,18.39
2019-03-15T03:02:59.815Z,18.39
2019-03-15T03:03:59.587Z,18.37
2019-03-15T03:04:59.499Z,18.37
2019-03-15T03:06:01.823Z,18.37
2019-03-15T03:06:59.547Z,18.37
2019-03-15T03:07:59.435Z,18.36
2019-03-15T03:08:59.539Z,18.36
2019-03-15T03:09:59.604Z,18.36
2019-03-15T03:10:59.630Z,18.37
2019-03-15T03:11:59.589Z,18.36
2019-03-15T03:12:59.378Z,18.37
2019-03-15T03:13:59.765Z,18.37
2019-03-15T03:14:59.581Z,18.36
2019-03-15T03:15:59.429Z,18.35
2019-03-15T03:16:59.528Z,18.35
2019-03-15T03:17:59.673Z,18.35
2019-03-15T03:19:01.668Z,18.35
2019-03-15T03:19:59.545Z,18.35
2019-03-15T03:20:59.658Z,18.35
2019-03-15T03:21:59.505Z,18.35
2019-03-15T03:22:59.553Z,18.35
2019-03-15T03:23:59.350Z,18.33
2019-03-15T03:24:59.475Z,18.33
2019-03-15T03:26:00.009Z,18.34
2019-03-15T03:26:59.502Z,18.33
2019-03-15T03:28:01.669Z,18.33
2019-03-15T03:29:00.013Z,18.33
2019-03-15T03:29:59.582Z,18.33
2019-03-15T03:30:59.854Z,18.32
2019-03-15T03:31:59.782Z,18.32
2019-03-15T03:32:59.709Z,18.32
2019-03-15T03:33:59.667Z,18.32
2019-03-15T03:34:59.628Z,18.33
2019-03-15T03:36:01.413Z,18.32
2019-03-15T03:36:59.604Z,18.31
2019-03-15T03:37:59.456Z,18.31
2019-03-15T03:38:59.599Z,18.3
2019-03-15T03:40:02.970Z,18.3
2019-03-15T03:41:02.217Z,18.29
2019-03-15T03:41:59.501Z,18.3
2019-03-15T03:42:59.638Z,18.29
2019-03-15T03:43:59.432Z,18.3
2019-03-15T03:45:00.441Z,18.3
2019-03-15T03:45:59.618Z,18.3
2019-03-15T03:46:59.551Z,18.29
2019-03-15T03:47:59.496Z,18.29
2019-03-15T03:48:59.459Z,18.29
2019-03-15T03:49:59.521Z,18.29
2019-03-15T03:51:00.714Z,18.29
2019-03-15T03:51:59.520Z,18.28
2019-03-15T03:52:59.526Z,18.28
2019-03-15T03:53:59.562Z,18.28
2019-03-15T03:54:59.455Z,18.28
2019-03-15T03:55:59.506Z,18.28
2019-03-15T03:56:59.579Z,18.27
2019-03-15T03:57:59.596Z,18.28
2019-03-15T03:58:59.532Z,18.27
2019-03-15T04:00:00.516Z,18.26
2019-03-15T04:00:59.395Z,18.26
2019-03-15T04:01:59.592Z,18.26
2019-03-15T04:02:59.402Z,18.26
2019-03-15T04:03:59.396Z,18.26
2019-03-15T04:04:59.513Z,18.25
2019-03-15T04:05:59.373Z,18.25
2019-03-15T04:06:59.565Z,18.25
2019-03-15T04:07:59.689Z,18.24
2019-03-15T04:08:59.717Z,18.25
2019-03-15T04:09:59.471Z,18.24
2019-03-15T04:10:59.639Z,18.24
2019-03-15T04:11:59.407Z,18.24
2019-03-15T04:12:59.575Z,18.23
2019-03-15T04:13:59.429Z,18.23
2019-03-15T04:14:59.452Z,18.23
2019-03-15T04:15:59.604Z,18.23
2019-03-15T04:16:59.359Z,18.23
2019-03-15T04:17:59.790Z,18.23
2019-03-15T04:18:59.556Z,18.24
2019-03-15T04:19:59.401Z,18.23
2019-03-15T04:20:59.612Z,18.23
2019-03-15T04:21:59.918Z,18.23
2019-03-15T04:22:59.438Z,18.23
2019-03-15T04:23:59.497Z,18.22
2019-03-15T04:24:59.288Z,18.23
2019-03-15T04:25:59.445Z,18.22
2019-03-15T04:26:59.562Z,18.22
2019-03-15T04:27:59.371Z,18.21
2019-03-15T04:28:59.388Z,18.22
2019-03-15T04:29:59.797Z,18.21
2019-03-15T04:30:59.509Z,18.21
2019-03-15T04:31:59.401Z,18.2
2019-03-15T04:32:59.670Z,18.2
2019-03-15T04:33:59.384Z,18.21
2019-03-15T04:34:59.569Z,18.2
2019-03-15T04:36:00.108Z,18.2
2019-03-15T04:36:59.455Z,18.2
2019-03-15T04:37:59.464Z,18.21
2019-03-15T04:38:59.321Z,18.21
2019-03-15T04:39:59.492Z,18.22
2019-03-15T04:40:59.527Z,18.21
2019-03-15T04:41:59.339Z,18.21
2019-03-15T04:42:59.513Z,18.22
2019-03-15T04:43:59.573Z,18.22
2019-03-15T04:44:59.422Z,18.23
2019-03-15T04:45:59.574Z,18.23
2019-03-15T04:46:59.523Z,18.23
2019-03-15T04:47:59.425Z,18.25
2019-03-15T04:48:59.529Z,18.24
2019-03-15T04:49:59.437Z,18.26
2019-03-15T04:50:59.424Z,18.26
2019-03-15T04:51:59.513Z,18.27
2019-03-15T04:52:59.412Z,18.29
2019-03-15T04:53:59.550Z,18.29
2019-03-15T04:54:59.576Z,18.3
2019-03-15T04:55:59.421Z,18.32
2019-03-15T04:56:59.524Z,18.33
2019-03-15T04:57:59.663Z,18.34
2019-03-15T04:58:59.466Z,18.35
2019-03-15T04:59:59.527Z,18.36
2019-03-15T05:00:59.305Z,18.38
2019-03-15T05:01:59.541Z,18.4
2019-03-15T05:02:59.468Z,18.41
2019-03-15T05:03:59.358Z,18.42
2019-03-15T05:05:01.343Z,18.44
2019-03-15T05:06:04.336Z,18.45
2019-03-15T05:06:59.427Z,18.48
2019-03-15T05:07:59.526Z,18.48
2019-03-15T05:08:59.364Z,18.51
2019-03-15T05:09:59.428Z,18.53
2019-03-15T05:10:59.649Z,18.54
2019-03-15T05:11:59.382Z,18.57
2019-03-15T05:12:59.391Z,18.58
2019-03-15T05:13:59.664Z,18.6
2019-03-15T05:14:59.346Z,18.61
2019-03-15T05:15:59.532Z,18.63
2019-03-15T05:16:59.542Z,18.65
2019-03-15T05:17:59.372Z,18.66
2019-03-15T05:18:59.587Z,18.68
2019-03-15T05:19:59.613Z,18.7
2019-03-15T05:20:59.403Z,18.71
2019-03-15T05:21:59.436Z,18.72
2019-03-15T05:22:59.610Z,18.74
2019-03-15T05:23:59.406Z,18.76
2019-03-15T05:24:59.764Z,18.77
2019-03-15T05:25:59.331Z,18.78
2019-03-15T05:26:59.757Z,18.8
2019-03-15T05:27:59.472Z,18.81
2019-03-15T05:28:59.303Z,18.83
2019-03-15T05:29:59.452Z,18.84
2019-03-15T05:30:59.627Z,18.85
2019-03-15T05:31:59.448Z,18.86
2019-03-15T05:32:59.481Z,18.88
2019-03-15T05:33:59.626Z,18.9
2019-03-15T05:34:59.489Z,18.9
2019-03-15T05:35:59.511Z,18.91
2019-03-15T05:36:59.555Z,18.92
2019-03-15T05:37:59.377Z,18.92
2019-03-15T05:38:59.517Z,18.93
2019-03-15T05:39:59.341Z,18.95
2019-03-15T05:40:59.722Z,18.96
2019-03-15T05:41:59.610Z,18.97
2019-03-15T05:42:59.382Z,18.97
2019-03-15T05:43:59.439Z,18.98
2019-03-15T05:44:59.660Z,18.99
2019-03-15T05:45:59.465Z,18.99
2019-03-15T05:46:59.453Z,19
2019-03-15T05:47:59.499Z,19.01
2019-03-15T05:48:59.377Z,19.01
2019-03-15T05:49:59.467Z,19.02
2019-03-15T05:50:59.416Z,19.02
2019-03-15T05:51:59.462Z,19.02
2019-03-15T05:52:59.578Z,19.03
2019-03-15T05:53:59.350Z,19.03
2019-03-15T05:54:59.413Z,19.03
2019-03-15T05:55:59.855Z,19.04
2019-03-15T05:56:59.305Z,19.04
2019-03-15T05:57:59.444Z,19.04
2019-03-15T05:58:59.633Z,19.05
2019-03-15T05:59:59.321Z,19.04
2019-03-15T06:00:59.507Z,19.06
2019-03-15T06:01:59.519Z,18.99
2019-03-15T06:02:59.462Z,18.89
2019-03-15T06:03:59.491Z,18.74
2019-03-15T06:04:59.310Z,18.64
2019-03-15T06:05:59.509Z,18.56
2019-03-15T06:06:59.521Z,18.51
2019-03-15T06:07:59.471Z,18.51
2019-03-15T06:08:59.405Z,18.58
2019-03-15T06:09:59.527Z,18.61
2019-03-15T06:10:59.478Z,18.61
2019-03-15T06:11:59.529Z,18.54
2019-03-15T06:12:59.694Z,18.46
2019-03-15T06:13:59.426Z,18.39
2019-03-15T06:14:59.600Z,18.34
2019-03-15T06:15:59.294Z,18.37
2019-03-15T06:16:59.464Z,18.42
2019-03-15T06:17:59.594Z,18.48
2019-03-15T06:18:59.319Z,18.49
2019-03-15T06:19:59.565Z,18.53
2019-03-15T06:20:59.554Z,18.55
2019-03-15T06:21:59.468Z,18.57
2019-03-15T06:22:59.787Z,18.6
2019-03-15T06:23:59.637Z,18.61
2019-03-15T06:24:59.553Z,18.63
2019-03-15T06:25:59.638Z,18.65
2019-03-15T06:26:59.649Z,18.66
2019-03-15T06:27:59.443Z,18.66
2019-03-15T06:29:02.152Z,18.67
2019-03-15T06:29:59.371Z,18.68
2019-03-15T06:30:59.607Z,18.69
2019-03-15T06:31:59.580Z,18.7
2019-03-15T06:32:59.594Z,18.71
2019-03-15T06:33:59.550Z,18.71
2019-03-15T06:34:59.370Z,18.72
2019-03-15T06:35:59.393Z,18.72
2019-03-15T06:36:59.469Z,18.72
2019-03-15T06:37:59.335Z,18.72
2019-03-15T06:38:59.534Z,18.73
2019-03-15T06:39:59.649Z,18.72
2019-03-15T06:41:00.649Z,18.74
2019-03-15T06:41:59.539Z,18.74
2019-03-15T06:42:59.624Z,18.75
2019-03-15T06:43:59.496Z,18.75
2019-03-15T06:44:59.578Z,18.75
2019-03-15T06:45:59.363Z,18.75
2019-03-15T06:46:59.573Z,18.75
2019-03-15T06:48:01.296Z,18.75
2019-03-15T06:48:59.468Z,18.77
2019-03-15T06:49:59.533Z,18.76
2019-03-15T06:50:59.597Z,18.76
2019-03-15T06:51:59.401Z,18.75
2019-03-15T06:52:59.417Z,18.75
2019-03-15T06:54:12.297Z,18.75
2019-03-15T06:55:00.602Z,18.75
2019-03-15T06:55:59.401Z,18.75
2019-03-15T06:56:59.535Z,18.75
2019-03-15T06:57:59.623Z,18.75
2019-03-15T06:58:59.603Z,18.75
2019-03-15T06:59:59.954Z,18.75
2019-03-15T07:00:59.481Z,18.75
2019-03-15T07:01:59.554Z,18.75
2019-03-15T07:02:59.282Z,18.75
2019-03-15T07:03:59.430Z,18.74
2019-03-15T07:04:59.905Z,18.74
2019-03-15T07:05:59.427Z,18.74
2019-03-15T07:06:59.499Z,18.73
2019-03-15T07:07:59.512Z,18.74
2019-03-15T07:08:59.417Z,18.73
2019-03-15T07:09:59.455Z,18.73
2019-03-15T07:10:59.320Z,18.73
2019-03-15T07:12:11.789Z,18.73
2019-03-15T07:12:59.507Z,18.73
2019-03-15T07:13:59.450Z,18.73
2019-03-15T07:14:59.468Z,18.73
2019-03-15T07:15:59.809Z,18.73
2019-03-15T07:16:59.481Z,18.73
2019-03-15T07:17:59.575Z,18.72
2019-03-15T07:18:59.561Z,18.72
2019-03-15T07:19:59.596Z,18.72
2019-03-15T07:20:59.484Z,18.72
2019-03-15T07:21:59.788Z,18.72
2019-03-15T07:22:59.569Z,18.72
2019-03-15T07:23:59.612Z,18.72
2019-03-15T07:24:59.493Z,18.72
2019-03-15T07:25:59.502Z,18.72
2019-03-15T07:27:13.970Z,18.71
2019-03-15T07:27:59.291Z,18.72
2019-03-15T07:28:59.490Z,18.71
2019-03-15T07:30:00.771Z,18.71
2019-03-15T07:30:59.450Z,18.71
2019-03-15T07:31:59.856Z,18.71
2019-03-15T07:32:59.743Z,18.71
2019-03-15T07:33:59.446Z,18.71
2019-03-15T07:34:59.505Z,18.71
2019-03-15T07:35:59.977Z,18.7
2019-03-15T07:36:59.474Z,18.7
2019-03-15T07:37:59.476Z,18.7
2019-03-15T07:38:59.377Z,18.7
2019-03-15T07:39:59.490Z,18.69
2019-03-15T07:40:59.482Z,18.7
2019-03-15T07:41:59.446Z,18.69
2019-03-15T07:43:05.735Z,18.69
2019-03-15T07:43:59.599Z,18.7
2019-03-15T07:44:59.419Z,18.69
2019-03-15T07:45:59.387Z,18.69
2019-03-15T07:46:59.505Z,18.69
2019-03-15T07:47:59.369Z,18.69
2019-03-15T07:48:59.401Z,18.69
2019-03-15T07:49:59.599Z,18.68
2019-03-15T07:50:59.428Z,18.7
2019-03-15T07:51:59.539Z,18.69
2019-03-15T07:52:59.285Z,18.68
2019-03-15T07:53:59.686Z,18.68
2019-03-15T07:54:59.596Z,18.68
2019-03-15T07:55:59.294Z,18.69
2019-03-15T07:56:59.437Z,18.69
2019-03-15T07:57:59.452Z,18.7
2019-03-15T07:58:59.768Z,18.7
2019-03-15T07:59:59.691Z,18.71
2019-03-15T08:00:59.628Z,18.72
2019-03-15T08:01:59.354Z,18.72
2019-03-15T08:02:59.392Z,18.73
2019-03-15T08:03:59.330Z,18.74
2019-03-15T08:04:59.347Z,18.75
2019-03-15T08:05:59.474Z,18.78
2019-03-15T08:06:59.363Z,18.78
2019-03-15T08:07:59.489Z,18.8
2019-03-15T08:08:59.473Z,18.82
2019-03-15T08:09:59.373Z,18.84
2019-03-15T08:10:59.611Z,18.85
2019-03-15T08:11:59.463Z,18.87
2019-03-15T08:12:59.360Z,18.89
2019-03-15T08:13:59.352Z,18.9
2019-03-15T08:14:59.206Z,18.91
2019-03-15T08:15:59.958Z,18.92
2019-03-15T08:16:59.558Z,18.94
2019-03-15T08:17:59.403Z,18.96
2019-03-15T08:18:59.416Z,18.97
2019-03-15T08:19:59.622Z,18.98
2019-03-15T08:20:59.320Z,18.99
2019-03-15T08:21:59.588Z,19.01
2019-03-15T08:22:59.307Z,19.03
2019-03-15T08:23:59.426Z,19.03
2019-03-15T08:24:59.458Z,19.05
2019-03-15T08:25:59.269Z,19.06
2019-03-15T08:26:59.355Z,19.08
2019-03-15T08:27:59.493Z,19.09
2019-03-15T08:28:59.418Z,19.09
2019-03-15T08:29:59.348Z,19.11
2019-03-15T08:30:59.653Z,19.11
2019-03-15T08:31:59.489Z,19.13
2019-03-15T08:33:11.588Z,19.14
2019-03-15T08:33:59.603Z,19.15
2019-03-15T08:34:59.425Z,19.15
2019-03-15T08:35:59.584Z,19.16
2019-03-15T08:36:59.628Z,19.17
2019-03-15T08:37:59.476Z,19.17
2019-03-15T08:38:59.971Z,19.18
2019-03-15T08:39:59.341Z,19.19
2019-03-15T08:40:59.484Z,19.2
2019-03-15T08:41:59.557Z,19.21
2019-03-15T08:42:59.365Z,19.21
2019-03-15T08:43:59.519Z,19.22
2019-03-15T08:44:59.644Z,19.22
2019-03-15T08:46:03.569Z,19.24
2019-03-15T08:46:59.597Z,19.24
2019-03-15T08:47:59.353Z,19.25
2019-03-15T08:48:59.545Z,19.26
2019-03-15T08:49:59.574Z,19.26
2019-03-15T08:50:59.635Z,19.27
2019-03-15T08:52:04.495Z,19.27
2019-03-15T08:52:59.559Z,19.29
2019-03-15T08:53:59.437Z,19.33
2019-03-15T08:55:06.241Z,19.32
2019-03-15T08:55:59.354Z,19.33
2019-03-15T08:56:59.410Z,19.33
2019-03-15T08:58:22.818Z,19.33
2019-03-15T08:58:59.520Z,19.34
2019-03-15T08:59:59.375Z,19.35
2019-03-15T09:00:59.857Z,19.37
2019-03-15T09:01:59.255Z,19.39
2019-03-15T09:02:59.424Z,19.4
2019-03-15T09:03:59.470Z,19.41
2019-03-15T09:04:59.304Z,19.42
2019-03-15T09:05:59.444Z,19.43
2019-03-15T09:06:59.245Z,19.44
2019-03-15T09:07:59.358Z,19.45
2019-03-15T09:08:59.453Z,19.45
2019-03-15T09:10:04.053Z,19.46
2019-03-15T09:10:59.359Z,19.46
2019-03-15T09:11:59.537Z,19.48
2019-03-15T09:12:59.304Z,19.48
2019-03-15T09:13:59.403Z,19.5
2019-03-15T09:14:59.511Z,19.5
2019-03-15T09:15:59.342Z,19.5
2019-03-15T09:16:59.427Z,19.51
2019-03-15T09:17:59.230Z,19.51
2019-03-15T09:18:59.347Z,19.51
2019-03-15T09:19:59.402Z,19.51
2019-03-15T09:20:59.543Z,19.52
2019-03-15T09:22:01.044Z,19.54
2019-03-15T09:22:59.577Z,19.53
2019-03-15T09:23:59.563Z,19.54
2019-03-15T09:24:59.416Z,19.55
2019-03-15T09:25:59.430Z,19.56
2019-03-15T09:26:59.393Z,19.56
2019-03-15T09:27:59.472Z,19.55
2019-03-15T09:28:59.299Z,19.55
2019-03-15T09:29:59.399Z,19.57
2019-03-15T09:30:59.402Z,19.56
2019-03-15T09:32:09.774Z,19.57
2019-03-15T09:33:03.497Z,19.57
2019-03-15T09:33:59.418Z,19.57
2019-03-15T09:34:59.431Z,19.58
2019-03-15T09:35:59.297Z,19.6
2019-03-15T09:36:59.468Z,19.58
2019-03-15T09:37:59.290Z,19.59
2019-03-15T09:38:59.480Z,19.58
2019-03-15T09:39:59.499Z,19.6
2019-03-15T09:40:59.409Z,19.61
2019-03-15T09:41:59.401Z,19.59
2019-03-15T09:43:00.322Z,19.6
2019-03-15T09:43:59.334Z,19.63
2019-03-15T09:45:00.778Z,19.62
2019-03-15T09:45:59.358Z,19.63
2019-03-15T09:47:02.969Z,19.62
2019-03-15T09:47:59.546Z,19.63
2019-03-15T09:49:00.142Z,19.63
2019-03-15T09:49:59.390Z,19.63
2019-03-15T09:50:59.474Z,19.66
2019-03-15T09:51:59.251Z,19.67
2019-03-15T09:52:59.608Z,19.66
2019-03-15T09:53:59.246Z,19.66
2019-03-15T09:54:59.306Z,19.66
2019-03-15T09:55:59.563Z,19.68
2019-03-15T09:56:59.270Z,19.71
2019-03-15T09:57:59.464Z,19.69
2019-03-15T09:58:59.392Z,19.68
2019-03-15T09:59:59.374Z,19.69
2019-03-15T10:01:00.766Z,19.69
2019-03-15T10:01:59.402Z,19.68
2019-03-15T10:02:59.552Z,19.68
2019-03-15T10:03:59.452Z,19.69
2019-03-15T10:05:11.954Z,19.69
2019-03-15T10:05:59.318Z,19.69
2019-03-15T10:06:59.630Z,19.69
2019-03-15T10:07:59.525Z,19.7
2019-03-15T10:08:59.245Z,19.71
2019-03-15T10:10:19.464Z,19.7
2019-03-15T10:10:59.587Z,19.71
2019-03-15T10:11:59.250Z,19.72
2019-03-15T10:13:06.704Z,19.72
2019-03-15T10:14:02.551Z,19.73
2019-03-15T10:14:59.321Z,19.72
2019-03-15T10:15:59.284Z,19.73
2019-03-15T10:16:59.442Z,19.73
2019-03-15T10:17:59.239Z,19.74
2019-03-15T10:18:59.360Z,19.74
2019-03-15T10:19:59.491Z,19.75
2019-03-15T10:20:59.559Z,19.74
2019-03-15T10:21:59.330Z,19.74
2019-03-15T10:23:06.818Z,19.74
2019-03-15T10:23:59.302Z,19.75
2019-03-15T10:24:59.463Z,19.75
2019-03-15T10:25:59.330Z,19.75
2019-03-15T10:26:59.590Z,19.75
2019-03-15T10:27:59.519Z,19.75
2019-03-15T10:28:59.224Z,19.75
2019-03-15T10:29:59.391Z,19.76
2019-03-15T10:30:59.418Z,19.77
2019-03-15T10:31:59.411Z,19.76
2019-03-15T10:32:59.438Z,19.76
2019-03-15T10:33:59.268Z,19.77
2019-03-15T10:34:59.241Z,19.78
2019-03-15T10:35:59.428Z,19.78
2019-03-15T10:36:59.275Z,19.78
2019-03-15T10:37:59.431Z,19.78
2019-03-15T10:38:59.441Z,19.78
2019-03-15T10:39:59.323Z,19.79
2019-03-15T10:41:01.710Z,19.79
2019-03-15T10:41:59.409Z,19.79
2019-03-15T10:42:59.309Z,19.79
2019-03-15T10:43:59.362Z,19.79
2019-03-15T10:44:59.749Z,19.79
2019-03-15T10:45:59.289Z,19.8
2019-03-15T10:46:59.557Z,19.8
2019-03-15T10:47:59.361Z,19.81
2019-03-15T10:48:59.394Z,19.81
2019-03-15T10:49:59.549Z,19.81
2019-03-15T10:51:00.155Z,19.82
2019-03-15T10:51:59.445Z,19.82
2019-03-15T10:52:59.474Z,19.81
2019-03-15T10:53:59.267Z,19.81
2019-03-15T10:54:59.568Z,19.81
2019-03-15T10:56:00.990Z,19.8
2019-03-15T10:56:59.392Z,19.74
2019-03-15T10:57:59.471Z,19.64
2019-03-15T10:58:59.284Z,19.62
2019-03-15T10:59:59.428Z,19.63
2019-03-15T11:00:59.440Z,19.64
2019-03-15T11:01:59.252Z,19.65
2019-03-15T11:02:59.415Z,19.65
2019-03-15T11:03:59.499Z,19.63
2019-03-15T11:04:59.288Z,19.64
2019-03-15T11:05:59.380Z,19.67
2019-03-15T11:06:59.192Z,19.68
2019-03-15T11:07:59.390Z,19.72
2019-03-15T11:08:59.334Z,19.72
2019-03-15T11:09:59.316Z,19.72
2019-03-15T11:10:59.300Z,19.73
2019-03-15T11:11:59.340Z,19.74
2019-03-15T11:12:59.302Z,19.73
2019-03-15T11:13:59.296Z,19.74
2019-03-15T11:14:59.445Z,19.74
2019-03-15T11:15:59.230Z,19.75
2019-03-15T11:16:59.307Z,19.75
2019-03-15T11:17:59.419Z,19.75
2019-03-15T11:18:59.196Z,19.75
2019-03-15T11:19:59.415Z,19.75
2019-03-15T11:20:59.841Z,19.76
2019-03-15T11:21:59.364Z,19.78
2019-03-15T11:22:59.562Z,19.77
2019-03-15T11:23:59.177Z,19.76
2019-03-15T11:24:59.300Z,19.76
2019-03-15T11:26:14.361Z,19.76
2019-03-15T11:26:59.356Z,19.75
2019-03-15T11:27:59.308Z,19.75
2019-03-15T11:28:59.417Z,19.74
2019-03-15T11:29:59.251Z,19.76
2019-03-15T11:31:01.075Z,19.77
2019-03-15T11:31:59.423Z,19.79
2019-03-15T11:32:59.425Z,19.77
2019-03-15T11:33:59.627Z,19.79
2019-03-15T11:34:59.459Z,19.8
2019-03-15T11:35:59.352Z,19.8
2019-03-15T11:36:59.348Z,19.8
2019-03-15T11:37:59.206Z,19.81
2019-03-15T11:38:59.383Z,19.82
2019-03-15T11:39:59.381Z,19.84
2019-03-15T11:40:59.311Z,19.84
2019-03-15T11:41:59.485Z,19.86
2019-03-15T11:42:59.527Z,19.88
2019-03-15T11:43:59.325Z,19.88
2019-03-15T11:44:59.343Z,19.9
2019-03-15T11:45:59.391Z,19.91
2019-03-15T11:46:59.433Z,19.92
2019-03-15T11:48:04.920Z,19.94
2019-03-15T11:48:59.304Z,19.94
2019-03-15T11:49:59.287Z,19.93
2019-03-15T11:50:59.479Z,19.94
2019-03-15T11:51:59.284Z,19.96
2019-03-15T11:52:59.269Z,19.96
2019-03-15T11:53:59.491Z,19.96
2019-03-15T11:54:59.237Z,19.96
2019-03-15T11:55:59.298Z,19.97
2019-03-15T11:56:59.470Z,19.97
2019-03-15T11:57:59.583Z,19.98
2019-03-15T11:58:59.445Z,19.97
2019-03-15T11:59:59.199Z,20.01
2019-03-15T12:00:59.298Z,20
2019-03-15T12:02:04.721Z,20.02
2019-03-15T12:02:59.195Z,20.02
2019-03-15T12:03:59.318Z,20.04
2019-03-15T12:04:59.527Z,20.06
2019-03-15T12:05:59.274Z,20.06
2019-03-15T12:06:59.599Z,20.06
2019-03-15T12:07:59.272Z,20.07
2019-03-15T12:08:59.365Z,20.07
2019-03-15T12:09:59.354Z,20.08
2019-03-15T12:10:59.237Z,20.08
2019-03-15T12:11:59.388Z,20.09
2019-03-15T12:12:59.413Z,20.1
2019-03-15T12:13:59.446Z,20.11
2019-03-15T12:14:59.377Z,20.1
2019-03-15T12:15:59.416Z,20.09
2019-03-15T12:16:59.189Z,20.09
2019-03-15T12:17:59.286Z,20.09
2019-03-15T12:18:59.655Z,20.09
2019-03-15T12:19:59.289Z,20.09
2019-03-15T12:20:59.308Z,20.09
2019-03-15T12:22:07.053Z,20.1
2019-03-15T12:22:59.251Z,20.1
2019-03-15T12:23:59.438Z,20.1
2019-03-15T12:24:59.376Z,20.1
2019-03-15T12:25:59.302Z,20.11
2019-03-15T12:26:59.351Z,20.11
2019-03-15T12:27:59.122Z,20.11
2019-03-15T12:28:59.346Z,20.12
2019-03-15T12:29:59.341Z,20.12
2019-03-15T12:30:59.540Z,20.12
2019-03-15T12:31:59.288Z,20.12
2019-03-15T12:32:59.345Z,20.13
2019-03-15T12:33:59.268Z,20.12
2019-03-15T12:34:59.248Z,20.14
2019-03-15T12:35:59.540Z,20.14
2019-03-15T12:36:59.163Z,20.15
2019-03-15T12:37:59.380Z,20.14
2019-03-15T12:38:59.341Z,20.15
2019-03-15T12:39:59.307Z,20.15
2019-03-15T12:40:59.487Z,20.16
2019-03-15T12:41:59.218Z,20.16
2019-03-15T12:42:59.215Z,20.16
2019-03-15T12:43:59.309Z,20.16
2019-03-15T12:44:59.225Z,20.17
2019-03-15T12:45:59.227Z,20.18
2019-03-15T12:46:59.561Z,20.18
2019-03-15T12:47:59.201Z,20.18
2019-03-15T12:48:59.249Z,20.18
2019-03-15T12:49:59.365Z,20.19
2019-03-15T12:50:59.254Z,20.19
2019-03-15T12:51:59.578Z,20.2
2019-03-15T12:52:59.117Z,20.2
2019-03-15T12:53:59.324Z,20.21
2019-03-15T12:54:59.300Z,20.21
2019-03-15T12:55:59.297Z,20.21